createdAt,value
2024-05-09T00:00:10.438Z,9.18
2024-05-09T00:01:14.465Z,9.28
2024-05-09T00:02:16.142Z,9.33
2024-05-09T00:03:17.825Z,9.31
2024-05-09T00:04:19.975Z,9.32
2024-05-09T00:05:21.957Z,9.31
2024-05-09T00:06:23.540Z,9.29
2024-05-09T00:07:25.099Z,9.29
2024-05-09T00:08:26.742Z,9.33
2024-05-09T00:09:28.334Z,9.36
2024-05-09T00:10:36.036Z,9.45
2024-05-09T00:11:40.384Z,9.46
2024-05-09T00:12:42.053Z,9.45
2024-05-09T00:13:43.703Z,9.45
2024-05-09T00:14:45.322Z,9.38
2024-05-09T00:15:46.942Z,9.37
2024-05-09T00:16:49.616Z,9.36
2024-05-09T00:17:51.437Z,9.30
2024-05-09T00:18:53.235Z,9.29
2024-05-09T00:19:54.995Z,9.23
2024-05-09T00:20:56.698Z,9.17
2024-05-09T00:21:58.346Z,9.16
2024-05-09T00:23:00.082Z,9.11
2024-05-09T00:24:01.678Z,9.05
2024-05-09T00:25:03.600Z,9.06
2024-05-09T00:26:05.265Z,9.03
2024-05-09T00:27:07.617Z,9.03
2024-05-09T00:28:11.451Z,8.99
2024-05-09T00:29:13.048Z,8.94
2024-05-09T00:30:21.551Z,8.88
2024-05-09T00:31:30.135Z,8.78
2024-05-09T00:32:31.962Z,8.77
2024-05-09T00:33:33.843Z,8.71
2024-05-09T00:34:35.514Z,8.60
2024-05-09T00:35:37.438Z,8.52
2024-05-09T00:36:39.182Z,8.49
2024-05-09T00:37:40.771Z,8.48
2024-05-09T00:38:42.345Z,8.45
2024-05-09T00:39:44.300Z,8.41
2024-05-09T00:40:45.933Z,8.34
2024-05-09T00:41:47.591Z,8.30
2024-05-09T00:42:49.167Z,8.26
2024-05-09T00:43:50.799Z,8.20
2024-05-09T00:44:52.430Z,8.14
2024-05-09T00:45:56.912Z,8.10
2024-05-09T00:46:59.345Z,8.02
2024-05-09T00:48:04.845Z,7.98
2024-05-09T00:49:07.482Z,7.91
2024-05-09T00:50:15.605Z,7.92
2024-05-09T00:51:21.075Z,7.85
2024-05-09T00:52:22.723Z,7.79
2024-05-09T00:53:24.935Z,7.77
2024-05-09T00:54:27.183Z,7.74
2024-05-09T00:55:29.638Z,7.70
2024-05-09T00:56:34.047Z,7.64
2024-05-09T00:57:35.728Z,7.64
2024-05-09T00:58:38.612Z,7.61
2024-05-09T00:59:40.506Z,7.60
2024-05-09T01:00:42.954Z,7.54
2024-05-09T01:01:45.892Z,7.50
2024-05-09T01:02:47.779Z,7.47
2024-05-09T01:03:51.291Z,7.45
2024-05-09T01:04:53.409Z,7.42
2024-05-09T01:05:55.062Z,7.35
2024-05-09T01:06:56.699Z,7.28
2024-05-09T01:07:58.374Z,7.22
2024-05-09T01:09:00.203Z,7.19
2024-05-09T01:10:02.489Z,7.18
2024-05-09T01:11:04.424Z,7.13
2024-05-09T01:12:06.180Z,7.18
2024-05-09T01:13:07.854Z,7.15
2024-05-09T01:14:09.613Z,7.14
2024-05-09T01:15:11.220Z,7.17
2024-05-09T01:16:13.696Z,7.16
2024-05-09T01:17:15.341Z,7.13
2024-05-09T01:18:17.219Z,7.12
2024-05-09T01:19:30.291Z,7.15
2024-05-09T01:20:40.820Z,7.15
2024-05-09T01:21:45.212Z,7.13
2024-05-09T01:22:47.676Z,7.13
2024-05-09T01:23:49.443Z,7.14
2024-05-09T01:24:52.013Z,7.17
2024-05-09T01:25:53.793Z,7.19
2024-05-09T01:26:55.480Z,7.21
2024-05-09T01:27:57.100Z,7.17
2024-05-09T01:28:58.763Z,7.18
2024-05-09T01:30:00.445Z,7.19
2024-05-09T01:31:02.106Z,7.23
2024-05-09T01:32:04.869Z,7.24
2024-05-09T01:33:08.963Z,7.26
2024-05-09T01:34:12.368Z,7.29
2024-05-09T01:35:14.111Z,7.27
2024-05-09T01:36:15.804Z,7.30
2024-05-09T01:37:17.405Z,7.33
2024-05-09T01:38:19.926Z,7.36
2024-05-09T01:39:21.605Z,7.38
2024-05-09T01:40:33.286Z,7.41
2024-05-09T01:41:39.364Z,7.47
2024-05-09T01:42:41.290Z,7.51
2024-05-09T01:43:42.974Z,7.50
2024-05-09T01:44:45.071Z,7.51
2024-05-09T01:45:46.562Z,7.53
2024-05-09T01:46:48.246Z,7.51
2024-05-09T01:47:49.953Z,7.53
2024-05-09T01:48:51.941Z,7.53
2024-05-09T01:49:53.832Z,7.51
2024-05-09T01:50:55.532Z,7.51
2024-05-09T01:51:57.177Z,7.49
2024-05-09T01:52:58.784Z,7.43
2024-05-09T01:54:00.390Z,7.47
2024-05-09T01:55:05.681Z,7.49
2024-05-09T01:56:09.358Z,7.48
2024-05-09T01:57:11.010Z,7.50
2024-05-09T01:58:13.115Z,7.49
2024-05-09T01:59:14.834Z,7.47
2024-05-09T02:00:22.403Z,7.46
2024-05-09T02:01:55.353Z,7.45
2024-05-09T02:02:53.966Z,7.38
2024-05-09T02:03:55.807Z,7.38
2024-05-09T02:04:57.580Z,7.37
2024-05-09T02:05:59.301Z,7.34
2024-05-09T02:07:01.008Z,7.33
2024-05-09T02:08:02.630Z,7.35
2024-05-09T02:09:04.332Z,7.27
2024-05-09T02:10:13.643Z,7.28
2024-05-09T02:11:18.333Z,7.26
2024-05-09T02:12:20.118Z,7.28
2024-05-09T02:13:21.852Z,7.26
2024-05-09T02:14:23.593Z,7.18
2024-05-09T02:15:25.232Z,7.17
2024-05-09T02:16:26.827Z,7.12
2024-05-09T02:17:28.638Z,7.12
2024-05-09T02:18:30.755Z,7.08
2024-05-09T02:19:32.757Z,7.04
2024-05-09T02:20:36.948Z,7.00
2024-05-09T02:21:40.363Z,6.95
2024-05-09T02:22:41.957Z,6.92
2024-05-09T02:23:43.620Z,6.90
2024-05-09T02:24:45.211Z,6.89
2024-05-09T02:25:46.876Z,6.88
2024-05-09T02:26:48.506Z,6.83
2024-05-09T02:27:50.572Z,6.79
2024-05-09T02:28:52.163Z,6.79
2024-05-09T02:29:53.847Z,6.75
2024-05-09T02:30:55.452Z,6.72
2024-05-09T02:31:57.058Z,6.70
2024-05-09T02:32:59.506Z,6.65
2024-05-09T02:34:01.485Z,6.61
2024-05-09T02:35:03.555Z,6.57
2024-05-09T02:36:05.771Z,6.54
2024-05-09T02:37:07.393Z,6.49
2024-05-09T02:38:09.645Z,6.45
2024-05-09T02:39:11.493Z,6.39
2024-05-09T02:40:14.998Z,6.36
2024-05-09T02:41:19.872Z,6.31
2024-05-09T02:42:21.723Z,6.24
2024-05-09T02:43:23.444Z,6.26
2024-05-09T02:44:25.157Z,6.25
2024-05-09T02:45:26.901Z,6.23
2024-05-09T02:46:28.484Z,6.20
2024-05-09T02:47:30.183Z,6.20
2024-05-09T02:48:31.937Z,6.14
2024-05-09T02:49:33.790Z,6.14
2024-05-09T02:50:39.135Z,6.10
2024-05-09T02:51:41.743Z,6.07
2024-05-09T02:52:43.394Z,6.05
2024-05-09T02:53:45.051Z,6.01
2024-05-09T02:54:46.703Z,6.00
2024-05-09T02:55:48.348Z,5.96
2024-05-09T02:56:49.948Z,5.95
2024-05-09T02:57:51.536Z,5.95
2024-05-09T02:58:53.273Z,5.96
2024-05-09T02:59:54.913Z,5.97
2024-05-09T03:00:56.546Z,5.95
2024-05-09T03:01:58.204Z,5.95
2024-05-09T03:03:00.207Z,5.90
2024-05-09T03:04:01.954Z,5.91
2024-05-09T03:05:03.871Z,5.86
2024-05-09T03:06:05.661Z,5.84
2024-05-09T03:07:07.265Z,5.82
2024-05-09T03:08:09.392Z,5.81
2024-05-09T03:09:11.072Z,5.78
2024-05-09T03:10:18.592Z,5.74
2024-05-09T03:11:26.864Z,5.74
2024-05-09T03:12:28.773Z,5.70
2024-05-09T03:13:30.357Z,5.71
2024-05-09T03:14:31.953Z,5.72
2024-05-09T03:15:33.643Z,5.71
2024-05-09T03:16:39.119Z,5.69
2024-05-09T03:17:41.489Z,5.71
2024-05-09T03:18:43.408Z,5.67
2024-05-09T03:19:45.092Z,5.66
2024-05-09T03:20:46.789Z,5.62
2024-05-09T03:21:48.513Z,5.61
2024-05-09T03:22:51.175Z,5.59
2024-05-09T03:23:53.816Z,5.55
2024-05-09T03:24:55.433Z,5.56
2024-05-09T03:25:57.187Z,5.56
2024-05-09T03:26:58.838Z,5.58
2024-05-09T03:28:00.499Z,5.56
2024-05-09T03:29:02.160Z,5.57
2024-05-09T03:30:07.167Z,5.53
2024-05-09T03:31:09.215Z,5.53
2024-05-09T03:32:10.983Z,5.52
2024-05-09T03:33:20.573Z,5.50
2024-05-09T03:34:22.742Z,5.47
2024-05-09T03:35:24.534Z,5.44
2024-05-09T03:36:26.228Z,5.42
2024-05-09T03:37:27.799Z,5.46
2024-05-09T03:38:29.648Z,5.47
2024-05-09T03:39:31.430Z,5.48
2024-05-09T03:40:33.028Z,5.49
2024-05-09T03:41:34.714Z,5.50
2024-05-09T03:42:40.850Z,5.47
2024-05-09T03:43:43.970Z,5.49
2024-05-09T03:44:45.585Z,5.51
2024-05-09T03:45:48.712Z,5.50
2024-05-09T03:46:50.357Z,5.49
2024-05-09T03:47:52.492Z,5.53
2024-05-09T03:48:54.504Z,5.51
2024-05-09T03:49:56.170Z,5.51
2024-05-09T03:50:57.843Z,5.52
2024-05-09T03:52:04.790Z,5.52
2024-05-09T03:53:10.261Z,5.53
2024-05-09T03:54:12.643Z,5.51
2024-05-09T03:55:14.291Z,5.50
2024-05-09T03:56:15.946Z,5.55
2024-05-09T03:57:17.518Z,5.54
2024-05-09T03:58:19.207Z,5.53
2024-05-09T03:59:20.847Z,5.55
2024-05-09T04:00:30.987Z,5.57
2024-05-09T04:01:39.013Z,5.57
2024-05-09T04:02:43.848Z,5.59
2024-05-09T04:03:45.789Z,5.61
2024-05-09T04:04:47.570Z,5.61
2024-05-09T04:05:49.248Z,5.62
2024-05-09T04:06:50.905Z,5.64
2024-05-09T04:07:52.776Z,5.64
2024-05-09T04:08:54.513Z,5.67
2024-05-09T04:09:56.081Z,5.71
2024-05-09T04:10:57.667Z,5.73
2024-05-09T04:11:59.470Z,5.74
2024-05-09T04:13:01.199Z,5.77
2024-05-09T04:14:02.866Z,5.73
2024-05-09T04:15:04.644Z,5.80
2024-05-09T04:16:07.992Z,5.81
2024-05-09T04:17:09.670Z,5.84
2024-05-09T04:18:12.116Z,5.86
2024-05-09T04:19:13.972Z,5.87
2024-05-09T04:20:24.784Z,5.91
2024-05-09T04:21:35.572Z,5.93
2024-05-09T04:22:37.199Z,5.93
2024-05-09T04:23:39.096Z,5.98
2024-05-09T04:24:40.699Z,6.01
2024-05-09T04:25:44.197Z,6.02
2024-05-09T04:26:46.207Z,6.05
2024-05-09T04:27:47.887Z,6.08
2024-05-09T04:28:49.502Z,6.08
2024-05-09T04:29:51.097Z,6.14
2024-05-09T04:30:52.734Z,6.18
2024-05-09T04:31:54.472Z,6.15
2024-05-09T04:32:56.249Z,6.24
2024-05-09T04:33:58.158Z,6.27
2024-05-09T04:35:00.017Z,6.30
2024-05-09T04:36:01.612Z,6.37
2024-05-09T04:37:03.655Z,6.41
2024-05-09T04:38:05.752Z,6.45
2024-05-09T04:39:07.578Z,6.43
2024-05-09T04:40:17.179Z,6.47
2024-05-09T04:41:25.999Z,6.52
2024-05-09T04:42:27.592Z,6.61
2024-05-09T04:43:29.190Z,6.63
2024-05-09T04:44:30.804Z,6.71
2024-05-09T04:45:32.478Z,6.77
2024-05-09T04:46:34.045Z,6.91
2024-05-09T04:47:35.855Z,7.11
2024-05-09T04:48:37.640Z,7.36
2024-05-09T04:49:39.354Z,7.64
2024-05-09T04:50:41.240Z,7.97
2024-05-09T04:51:42.868Z,8.32
2024-05-09T04:52:44.538Z,8.73
2024-05-09T04:53:46.331Z,8.96
2024-05-09T04:54:47.947Z,9.09
2024-05-09T04:55:50.264Z,9.32
2024-05-09T04:56:51.891Z,9.46
2024-05-09T04:57:53.481Z,9.59
2024-05-09T04:58:55.117Z,9.74
2024-05-09T04:59:57.976Z,9.80
2024-05-09T05:00:59.589Z,9.77
2024-05-09T05:02:01.329Z,9.89
2024-05-09T05:03:06.798Z,10.10
2024-05-09T05:04:09.543Z,10.27
2024-05-09T05:05:12.163Z,10.46
2024-05-09T05:06:13.922Z,10.66
2024-05-09T05:07:15.498Z,10.80
2024-05-09T05:08:18.996Z,10.93
2024-05-09T05:09:21.106Z,11.14
2024-05-09T05:10:29.540Z,11.28
2024-05-09T05:11:37.107Z,11.49
2024-05-09T05:12:57.490Z,11.57
2024-05-09T05:13:59.125Z,11.66
2024-05-09T05:15:00.710Z,11.60
2024-05-09T05:16:02.337Z,11.73
2024-05-09T05:17:04.105Z,11.80
2024-05-09T05:18:06.055Z,11.77
2024-05-09T05:19:11.469Z,11.80
2024-05-09T05:20:17.957Z,11.58
2024-05-09T05:21:27.370Z,11.50
2024-05-09T05:22:28.988Z,11.42
2024-05-09T05:23:30.705Z,11.37
2024-05-09T05:24:32.306Z,11.40
2024-05-09T05:25:33.870Z,11.38
2024-05-09T05:26:35.462Z,11.28
2024-05-09T05:27:38.437Z,11.29
2024-05-09T05:28:40.076Z,11.17
2024-05-09T05:29:41.786Z,11.17
2024-05-09T05:30:43.821Z,11.27
2024-05-09T05:31:45.468Z,11.27
2024-05-09T05:32:47.234Z,11.27
2024-05-09T05:33:49.203Z,11.16
2024-05-09T05:34:50.835Z,11.11
2024-05-09T05:35:52.513Z,11.17
2024-05-09T05:36:54.108Z,11.21
2024-05-09T05:37:55.815Z,11.22
2024-05-09T05:38:57.589Z,11.19
2024-05-09T05:39:59.315Z,11.21
2024-05-09T05:41:01.431Z,11.26
2024-05-09T05:42:03.134Z,11.23
2024-05-09T05:43:10.034Z,11.42
2024-05-09T05:44:14.316Z,11.47
2024-05-09T05:45:15.945Z,11.52
2024-05-09T05:46:17.524Z,11.41
2024-05-09T05:47:19.174Z,11.39
2024-05-09T05:48:20.989Z,11.34
2024-05-09T05:49:22.867Z,11.45
2024-05-09T05:50:32.288Z,11.50
2024-05-09T05:51:37.545Z,11.52
2024-05-09T05:52:39.166Z,11.54
2024-05-09T05:53:41.053Z,11.53
2024-05-09T05:54:42.794Z,11.52
2024-05-09T05:55:44.679Z,11.53
2024-05-09T05:56:46.311Z,11.39
2024-05-09T05:57:47.936Z,11.30
2024-05-09T05:58:50.159Z,11.32
2024-05-09T05:59:51.774Z,11.29
2024-05-09T06:00:53.673Z,11.29
2024-05-09T06:01:55.471Z,11.36
2024-05-09T06:02:57.528Z,11.30
2024-05-09T06:03:59.295Z,11.27
2024-05-09T06:05:01.147Z,11.27
2024-05-09T06:06:04.012Z,11.24
2024-05-09T06:07:06.021Z,11.32
2024-05-09T06:08:07.950Z,11.44
2024-05-09T06:09:09.502Z,11.40
2024-05-09T06:10:17.372Z,11.48
2024-05-09T06:11:23.410Z,11.48
2024-05-09T06:12:25.259Z,11.54
2024-05-09T06:13:27.170Z,11.61
2024-05-09T06:14:28.939Z,11.73
2024-05-09T06:15:30.598Z,11.74
2024-05-09T06:16:32.364Z,11.78
2024-05-09T06:17:34.114Z,11.76
2024-05-09T06:18:36.061Z,11.69
2024-05-09T06:19:37.950Z,11.72
2024-05-09T06:20:41.909Z,11.73
2024-05-09T06:21:44.760Z,11.76
2024-05-09T06:22:46.354Z,11.77
2024-05-09T06:23:48.824Z,11.72
2024-05-09T06:24:50.451Z,11.74
2024-05-09T06:25:52.377Z,11.77
2024-05-09T06:26:53.889Z,11.81
2024-05-09T06:27:55.470Z,11.79
2024-05-09T06:28:57.254Z,11.82
2024-05-09T06:29:58.893Z,11.96
2024-05-09T06:31:01.664Z,12.07
2024-05-09T06:32:03.583Z,12.06
2024-05-09T06:33:05.972Z,12.12
2024-05-09T06:34:07.907Z,12.13
2024-05-09T06:35:09.584Z,12.15
2024-05-09T06:36:11.280Z,12.15
2024-05-09T06:37:12.935Z,12.21
2024-05-09T06:38:14.823Z,12.22
2024-05-09T06:39:16.405Z,12.22
2024-05-09T06:40:25.364Z,12.24
2024-05-09T06:41:31.606Z,12.31
2024-05-09T06:42:33.144Z,12.36
2024-05-09T06:43:35.291Z,12.40
2024-05-09T06:44:36.954Z,12.39
2024-05-09T06:45:39.891Z,12.45
2024-05-09T06:46:42.162Z,12.50
2024-05-09T06:47:43.970Z,12.56
2024-05-09T06:48:48.115Z,12.54
2024-05-09T06:49:50.049Z,12.58
2024-05-09T06:50:51.777Z,12.63
2024-05-09T06:51:53.439Z,12.62
2024-05-09T06:52:55.062Z,12.66
2024-05-09T06:53:56.661Z,12.72
2024-05-09T06:54:58.247Z,12.72
2024-05-09T06:56:00.006Z,12.76
2024-05-09T06:57:01.646Z,12.79
2024-05-09T06:58:05.987Z,12.85
2024-05-09T06:59:07.656Z,12.84
2024-05-09T07:00:15.498Z,12.89
2024-05-09T07:01:20.620Z,12.98
2024-05-09T07:02:22.489Z,13.05
2024-05-09T07:03:24.479Z,13.10
2024-05-09T07:04:26.509Z,13.14
2024-05-09T07:05:28.423Z,13.24
2024-05-09T07:06:30.101Z,13.17
2024-05-09T07:07:31.752Z,13.16
2024-05-09T07:08:33.439Z,13.25
2024-05-09T07:09:35.049Z,13.28
2024-05-09T07:10:37.223Z,13.35
2024-05-09T07:11:39.247Z,13.35
2024-05-09T07:12:40.905Z,13.33
2024-05-09T07:13:42.483Z,13.37
2024-05-09T07:14:44.144Z,13.37
2024-05-09T07:15:45.735Z,13.41
2024-05-09T07:16:47.473Z,13.49
2024-05-09T07:17:49.331Z,13.53
2024-05-09T07:18:55.128Z,13.64
2024-05-09T07:19:56.937Z,13.67
2024-05-09T07:20:58.622Z,13.60
2024-05-09T07:22:00.221Z,13.65
2024-05-09T07:23:04.862Z,13.78
2024-05-09T07:24:06.531Z,13.79
2024-05-09T07:25:08.153Z,13.83
2024-05-09T07:26:09.834Z,13.91
2024-05-09T07:27:11.395Z,13.89
2024-05-09T07:28:17.539Z,13.84
2024-05-09T07:29:19.344Z,13.90
2024-05-09T07:30:27.640Z,13.94
2024-05-09T07:31:34.674Z,13.91
2024-05-09T07:32:36.348Z,13.94
2024-05-09T07:33:38.084Z,14.02
2024-05-09T07:34:39.785Z,14.03
2024-05-09T07:35:41.527Z,14.05
2024-05-09T07:36:43.323Z,14.11
2024-05-09T07:37:45.048Z,14.13
2024-05-09T07:38:46.722Z,14.10
2024-05-09T07:39:48.317Z,14.12
2024-05-09T07:40:50.020Z,14.20
2024-05-09T07:41:51.662Z,14.21
2024-05-09T07:42:53.369Z,14.21
2024-05-09T07:43:55.028Z,14.20
2024-05-09T07:45:00.978Z,14.20
2024-05-09T07:47:14.080Z,14.24
2024-05-09T07:48:57.722Z,14.31
2024-05-09T07:50:34.893Z,14.27
2024-05-09T07:53:41.644Z,14.45
2024-05-09T07:54:46.936Z,14.45
2024-05-09T07:55:48.712Z,14.51
2024-05-09T07:56:50.613Z,14.56
2024-05-09T07:57:52.398Z,14.59
2024-05-09T07:58:54.457Z,14.58
2024-05-09T07:59:56.142Z,14.61
2024-05-09T08:00:57.833Z,14.56
2024-05-09T08:01:59.783Z,14.54
2024-05-09T08:03:01.526Z,14.52
2024-05-09T08:04:03.235Z,14.46
2024-05-09T08:05:05.216Z,14.62
2024-05-09T08:06:06.962Z,14.69
2024-05-09T08:07:08.697Z,14.76
2024-05-09T08:08:11.354Z,14.83
2024-05-09T08:09:16.930Z,14.89
2024-05-09T08:10:27.309Z,14.89
2024-05-09T08:11:32.302Z,14.94
2024-05-09T08:12:33.995Z,14.90
2024-05-09T08:13:35.669Z,14.85
2024-05-09T08:14:37.267Z,14.76
2024-05-09T08:15:39.376Z,14.84
2024-05-09T08:16:41.007Z,14.83
2024-05-09T08:17:42.649Z,14.83
2024-05-09T08:18:44.459Z,14.91
2024-05-09T08:19:46.220Z,14.85
2024-05-09T08:20:49.123Z,14.90
2024-05-09T08:21:50.802Z,14.98
2024-05-09T08:22:52.401Z,14.93
2024-05-09T08:23:54.149Z,14.92
2024-05-09T08:24:55.810Z,14.96
2024-05-09T08:25:57.522Z,14.92
2024-05-09T08:26:59.089Z,14.93
2024-05-09T08:28:00.826Z,14.95
2024-05-09T08:29:02.954Z,15.00
2024-05-09T08:30:06.318Z,15.14
2024-05-09T08:31:10.433Z,15.23
2024-05-09T08:32:13.764Z,15.25
2024-05-09T08:33:15.639Z,15.23
2024-05-09T08:34:17.402Z,15.28
2024-05-09T08:35:19.115Z,15.28
2024-05-09T08:36:20.784Z,15.35
2024-05-09T08:37:24.808Z,15.38
2024-05-09T08:38:29.422Z,15.34
2024-05-09T08:39:31.071Z,15.40
2024-05-09T08:40:36.183Z,15.43
2024-05-09T08:41:42.678Z,15.51
2024-05-09T08:42:51.043Z,15.46
2024-05-09T08:43:52.730Z,15.46
2024-05-09T08:44:54.382Z,15.55
2024-05-09T08:45:57.383Z,15.56
2024-05-09T08:46:59.627Z,15.59
2024-05-09T08:48:05.758Z,15.51
2024-05-09T08:49:08.342Z,15.49
2024-05-09T08:50:23.922Z,15.45
2024-05-09T08:51:33.130Z,15.38
2024-05-09T08:52:34.935Z,15.39
2024-05-09T08:53:36.664Z,15.44
2024-05-09T08:54:38.332Z,15.52
2024-05-09T08:55:43.011Z,15.61
2024-05-09T08:56:48.135Z,15.65
2024-05-09T08:57:49.866Z,15.75
2024-05-09T08:58:56.946Z,15.80
2024-05-09T09:00:06.280Z,15.76
2024-05-09T09:01:10.134Z,15.79
2024-05-09T09:02:14.128Z,15.82
2024-05-09T09:03:18.428Z,15.84
2024-05-09T09:04:23.560Z,15.79
2024-05-09T09:05:30.876Z,15.80
2024-05-09T09:06:34.708Z,15.81
2024-05-09T09:07:39.737Z,15.87
2024-05-09T09:08:41.329Z,15.91
2024-05-09T09:09:45.766Z,15.98
2024-05-09T09:10:47.854Z,15.99
2024-05-09T09:11:49.618Z,15.94
2024-05-09T09:13:01.511Z,15.89
2024-05-09T09:14:03.217Z,15.90
2024-05-09T09:15:05.138Z,15.93
2024-05-09T09:16:07.008Z,15.97
2024-05-09T09:17:16.344Z,15.97
2024-05-09T09:18:18.848Z,15.97
2024-05-09T09:19:22.986Z,15.92
2024-05-09T09:20:35.618Z,15.92
2024-05-09T09:21:38.600Z,15.96
2024-05-09T09:22:40.264Z,16.01
2024-05-09T09:23:41.847Z,16.05
2024-05-09T09:24:43.552Z,16.07
2024-05-09T09:25:45.359Z,16.04
2024-05-09T09:26:46.944Z,15.96
2024-05-09T09:27:48.614Z,15.88
2024-05-09T09:28:50.420Z,15.90
2024-05-09T09:29:52.048Z,15.83
2024-05-09T09:30:53.649Z,15.86
2024-05-09T09:32:03.623Z,15.97
2024-05-09T09:33:06.545Z,16.00
2024-05-09T09:34:08.640Z,16.05
2024-05-09T09:35:10.488Z,16.12
2024-05-09T09:36:15.301Z,16.17
2024-05-09T09:37:20.947Z,16.26
2024-05-09T09:38:23.659Z,16.24
2024-05-09T09:39:28.130Z,16.26
2024-05-09T09:40:37.159Z,16.29
2024-05-09T09:41:47.223Z,16.28
2024-05-09T09:42:50.186Z,16.21
2024-05-09T09:43:53.502Z,16.21
2024-05-09T09:45:04.298Z,16.23
2024-05-09T09:46:11.772Z,16.24
2024-05-09T09:47:16.530Z,16.25
2024-05-09T09:48:20.082Z,16.19
2024-05-09T09:49:24.275Z,16.19
2024-05-09T09:50:33.376Z,16.29
2024-05-09T09:51:37.022Z,16.37
2024-05-09T09:52:38.962Z,16.40
2024-05-09T09:53:42.378Z,16.49
2024-05-09T09:54:45.120Z,16.55
2024-05-09T09:55:47.283Z,16.60
2024-05-09T09:56:51.178Z,16.67
2024-05-09T09:57:56.104Z,16.72
2024-05-09T09:59:00.128Z,16.79
2024-05-09T10:00:03.073Z,16.82
2024-05-09T10:01:05.912Z,16.93
2024-05-09T10:02:07.756Z,16.94
2024-05-09T10:03:09.514Z,16.99
2024-05-09T10:04:12.838Z,17.06
2024-05-09T10:05:15.390Z,17.12
2024-05-09T10:06:18.656Z,17.15
2024-05-09T10:07:22.318Z,17.14
2024-05-09T10:08:24.517Z,17.16
2024-05-09T10:09:26.415Z,17.25
2024-05-09T10:10:32.403Z,17.37
2024-05-09T10:11:39.761Z,17.44
2024-05-09T10:13:03.583Z,17.42
2024-05-09T10:14:07.434Z,17.35
2024-05-09T10:15:09.760Z,17.51
2024-05-09T10:16:12.065Z,17.54
2024-05-09T10:17:14.043Z,17.56
2024-05-09T10:18:16.074Z,17.57
2024-05-09T10:19:25.299Z,17.57
2024-05-09T10:20:30.909Z,17.66
2024-05-09T10:21:34.279Z,17.58
2024-05-09T10:22:46.127Z,17.63
2024-05-09T10:24:04.050Z,17.75
2024-05-09T10:25:07.477Z,17.84
2024-05-09T10:26:09.075Z,17.91
2024-05-09T10:27:10.666Z,17.97
2024-05-09T10:28:12.613Z,17.98
2024-05-09T10:29:18.977Z,17.91
2024-05-09T10:31:29.793Z,18.13
2024-05-09T10:32:38.563Z,18.27
2024-05-09T10:33:46.108Z,18.30
2024-05-09T10:35:06.458Z,18.29
2024-05-09T10:36:14.825Z,18.40
2024-05-09T10:37:17.444Z,18.41
2024-05-09T10:38:19.710Z,18.51
2024-05-09T10:39:21.803Z,18.54
2024-05-09T10:40:29.111Z,18.69
2024-05-09T10:41:33.350Z,18.66
2024-05-09T10:42:36.304Z,18.71
2024-05-09T10:43:41.493Z,18.89
2024-05-09T10:44:43.167Z,18.88
2024-05-09T10:45:44.792Z,18.59
2024-05-09T10:46:46.671Z,18.60
2024-05-09T10:47:48.392Z,18.66
2024-05-09T10:48:50.737Z,18.67
2024-05-09T10:49:52.670Z,18.66
2024-05-09T10:50:54.715Z,18.77
2024-05-09T10:51:56.271Z,18.88
2024-05-09T10:52:57.876Z,18.92
2024-05-09T10:53:59.505Z,19.10
2024-05-09T10:55:03.063Z,19.17
2024-05-09T10:56:06.689Z,19.25
2024-05-09T10:57:08.178Z,19.15
2024-05-09T10:58:18.935Z,19.01
2024-05-09T10:59:20.578Z,19.11
2024-05-09T11:00:27.818Z,19.09
2024-05-09T11:01:35.559Z,19.30
2024-05-09T11:02:37.647Z,19.58
2024-05-09T11:03:40.110Z,19.64
2024-05-09T11:04:42.803Z,19.80
2024-05-09T11:05:46.022Z,19.87
2024-05-09T11:06:48.024Z,19.84
2024-05-09T11:07:50.335Z,20.02
2024-05-09T11:08:52.382Z,20.04
2024-05-09T11:09:54.437Z,20.17
2024-05-09T11:10:56.609Z,20.19
2024-05-09T11:11:58.631Z,19.80
2024-05-09T11:13:00.284Z,20.14
2024-05-09T11:14:11.971Z,20.43
2024-05-09T11:15:14.824Z,20.54
2024-05-09T11:16:21.623Z,20.46
2024-05-09T11:17:23.554Z,20.63
2024-05-09T11:18:27.130Z,20.52
2024-05-09T11:19:31.291Z,20.72
2024-05-09T11:20:37.207Z,20.77
2024-05-09T11:21:39.393Z,20.83
2024-05-09T11:22:41.096Z,20.76
2024-05-09T11:23:42.698Z,20.90
2024-05-09T11:24:44.470Z,20.88
2024-05-09T11:25:52.590Z,21.07
2024-05-09T11:26:54.295Z,21.08
2024-05-09T11:28:01.718Z,21.34
2024-05-09T11:29:03.398Z,21.28
2024-05-09T11:30:07.315Z,21.48
2024-05-09T11:31:11.184Z,21.64
2024-05-09T11:32:14.923Z,21.56
2024-05-09T11:33:20.012Z,21.32
2024-05-09T11:34:21.679Z,21.60
2024-05-09T11:35:23.372Z,21.55
2024-05-09T11:36:24.973Z,21.74
2024-05-09T11:37:26.686Z,21.63
2024-05-09T11:38:28.354Z,21.60
2024-05-09T11:39:30.241Z,21.23
2024-05-09T11:40:34.437Z,21.49
2024-05-09T11:41:36.442Z,21.57
2024-05-09T11:42:38.038Z,21.59
2024-05-09T11:43:39.638Z,21.58
2024-05-09T11:44:41.189Z,21.60
2024-05-09T11:45:42.858Z,21.83
2024-05-09T11:46:44.545Z,22.06
2024-05-09T11:47:46.511Z,22.09
2024-05-09T11:48:48.316Z,22.28
2024-05-09T11:49:49.999Z,22.30
2024-05-09T11:50:51.885Z,22.70
2024-05-09T11:51:53.504Z,22.76
2024-05-09T11:52:55.140Z,22.57
2024-05-09T11:53:56.761Z,22.91
2024-05-09T11:54:58.530Z,23.06
2024-05-09T11:56:00.041Z,22.71
2024-05-09T11:57:01.752Z,22.96
2024-05-09T11:58:04.036Z,23.07
2024-05-09T11:59:05.777Z,23.11
2024-05-09T12:00:11.861Z,23.32
2024-05-09T12:01:13.634Z,23.47
2024-05-09T12:02:15.430Z,23.63
2024-05-09T12:03:17.203Z,23.67
2024-05-09T12:04:19.144Z,23.30
2024-05-09T12:05:21.334Z,23.32
2024-05-09T12:06:23.108Z,23.57
2024-05-09T12:07:24.924Z,23.76
2024-05-09T12:08:26.679Z,23.93
2024-05-09T12:09:28.309Z,24.09
2024-05-09T12:10:34.803Z,24.36
2024-05-09T12:11:38.009Z,24.58
2024-05-09T12:12:39.550Z,24.47
2024-05-09T12:13:41.164Z,24.57
2024-05-09T12:14:43.007Z,24.73
2024-05-09T12:15:44.723Z,24.53
2024-05-09T12:16:46.447Z,24.40
2024-05-09T12:17:50.914Z,24.54
2024-05-09T12:18:52.900Z,24.86
2024-05-09T12:19:54.539Z,24.89
2024-05-09T12:20:56.185Z,24.96
2024-05-09T12:21:57.828Z,25.20
2024-05-09T12:22:59.570Z,24.83
2024-05-09T12:24:01.076Z,24.75
2024-05-09T12:25:04.888Z,24.66
2024-05-09T12:26:06.596Z,24.47
2024-05-09T12:27:08.202Z,24.26
2024-05-09T12:28:09.919Z,24.24
2024-05-09T12:29:11.555Z,24.10
2024-05-09T12:30:20.759Z,24.24
2024-05-09T12:31:30.107Z,24.34
2024-05-09T12:32:31.875Z,24.33
2024-05-09T12:33:33.597Z,24.51
2024-05-09T12:34:35.193Z,24.55
2024-05-09T12:35:36.985Z,24.30
2024-05-09T12:36:38.583Z,24.58
2024-05-09T12:37:40.435Z,24.64
2024-05-09T12:38:42.014Z,24.56
2024-05-09T12:39:43.675Z,24.60
2024-05-09T12:40:45.389Z,24.11
2024-05-09T12:41:46.953Z,24.39
2024-05-09T12:42:49.929Z,24.30
2024-05-09T12:43:51.615Z,23.68
2024-05-09T12:44:53.213Z,23.82
2024-05-09T12:45:54.924Z,23.65
2024-05-09T12:46:56.503Z,23.58
2024-05-09T12:47:58.410Z,23.56
2024-05-09T12:49:00.365Z,23.40
2024-05-09T12:50:03.806Z,23.44
2024-05-09T12:51:06.010Z,23.80
2024-05-09T12:52:07.642Z,23.95
2024-05-09T12:53:09.288Z,24.04
2024-05-09T12:54:10.908Z,24.11
2024-05-09T12:55:12.689Z,23.19
2024-05-09T12:56:14.422Z,23.16
2024-05-09T12:57:16.093Z,23.30
2024-05-09T12:58:18.004Z,23.22
2024-05-09T12:59:19.678Z,23.55
2024-05-09T13:00:28.127Z,23.79
2024-05-09T13:01:35.645Z,24.13
2024-05-09T13:02:37.639Z,24.33
2024-05-09T13:03:39.542Z,24.37
2024-05-09T13:04:41.760Z,23.58
2024-05-09T13:05:46.684Z,23.54
2024-05-09T13:06:49.387Z,23.57
2024-05-09T13:07:51.175Z,23.52
2024-05-09T13:08:52.867Z,23.56
2024-05-09T13:09:54.488Z,23.65
2024-05-09T13:10:56.252Z,23.75
2024-05-09T13:11:57.835Z,23.79
2024-05-09T13:13:00.232Z,24.12
2024-05-09T13:14:02.363Z,24.18
2024-05-09T13:15:04.202Z,24.48
2024-05-09T13:16:05.999Z,24.41
2024-05-09T13:17:07.560Z,24.35
2024-05-09T13:18:09.483Z,24.69
2024-05-09T13:19:11.187Z,24.69
2024-05-09T13:20:19.014Z,24.77
2024-05-09T13:21:27.836Z,24.29
2024-05-09T13:22:29.418Z,24.35
2024-05-09T13:23:31.020Z,24.29
2024-05-09T13:24:32.700Z,24.41
2024-05-09T13:25:34.908Z,24.37
2024-05-09T13:26:36.862Z,24.32
2024-05-09T13:27:38.507Z,23.71
2024-05-09T13:28:40.226Z,24.08
2024-05-09T13:29:44.268Z,24.15
2024-05-09T13:30:46.178Z,24.03
2024-05-09T13:31:47.698Z,23.78
2024-05-09T13:32:49.407Z,23.97
2024-05-09T13:33:51.188Z,24.10
2024-05-09T13:34:52.942Z,23.49
2024-05-09T13:35:54.607Z,23.51
2024-05-09T13:36:56.228Z,23.83
2024-05-09T13:37:57.868Z,24.21
2024-05-09T13:38:59.513Z,24.46
2024-05-09T13:40:01.261Z,24.67
2024-05-09T13:41:02.776Z,24.34
2024-05-09T13:42:04.510Z,24.44
2024-05-09T13:43:06.648Z,24.25
2024-05-09T13:44:09.717Z,24.38
2024-05-09T13:45:11.289Z,24.35
2024-05-09T13:46:13.042Z,24.54